Time;durP1;ratioP1;P1;durP2;ratioP2;P2;SDS_P1;SDS_P2;PMS_P1;PMS_P2;Temp;Humidity;BMP_temperature;BMP_pressure;BME280_temperature;BME280_humidity;BME280_pressure;Samples;Min_cycle;Max_cycle;Signal;HPM_P1;HPM_P2
2022/12/14 00:02:12;;;;;;;26.13;14.38;;;;;;;-1.38;100.00;100632.75;5029918;28;20365;-65
2022/12/14 00:04:37;;;;;;;24.67;14.18;;;;;;;-1.37;100.00;100644.81;5028974;28;20033;-65
2022/12/14 00:07:03;;;;;;;29.88;13.73;;;;;;;-1.34;100.00;100641.41;5029847;28;20031;-65
2022/12/14 00:09:28;;;;;;;23.63;13.00;;;;;;;-1.25;100.00;100640.66;5030324;28;20048;-62
2022/12/14 00:11:53;;;;;;;23.77;12.85;;;;;;;-1.23;100.00;100633.78;5030794;28;20025;-63
2022/12/14 00:14:19;;;;;;;34.63;12.85;;;;;;;-1.28;100.00;100623.38;5028472;28;20460;-61
2022/12/14 00:16:44;;;;;;;30.02;13.85;;;;;;;-1.33;100.00;100623.31;5030110;28;20776;-64
2022/12/14 00:19:10;;;;;;;24.95;13.02;;;;;;;-1.35;100.00;100617.28;5029347;28;20541;-62
2022/12/14 00:21:35;;;;;;;24.92;13.30;;;;;;;-1.43;100.00;100613.72;5031856;28;20032;-67
2022/12/14 00:24:00;;;;;;;25.10;12.93;;;;;;;-1.34;100.00;100607.81;5031006;28;20109;-65
2022/12/14 00:26:28;;;;;;;28.08;14.07;;;;;;;-1.47;100.00;100611.97;5030674;28;20364;-64
2022/12/14 00:28:54;;;;;;;21.50;12.70;;;;;;;-1.40;100.00;100603.44;5030502;28;20025;-64
2022/12/14 00:31:20;;;;;;;24.13;12.32;;;;;;;-1.38;100.00;100596.56;5029223;28;20036;-60
2022/12/14 00:33:46;;;;;;;23.77;12.07;;;;;;;-1.45;100.00;100593.03;5028767;28;20259;-63
2022/12/14 00:36:12;;;;;;;23.73;13.15;;;;;;;-1.40;100.00;100591.38;5029583;28;20028;-63
2022/12/14 00:38:38;;;;;;;23.33;13.10;;;;;;;-1.40;100.00;100588.78;5028177;28;20098;-64
2022/12/14 00:41:03;;;;;;;24.30;12.25;;;;;;;-1.38;100.00;100590.53;5029421;28;20099;-64
2022/12/14 00:43:29;;;;;;;26.27;11.77;;;;;;;-1.40;100.00;100587.91;5029640;28;20456;-64
2022/12/14 00:45:54;;;;;;;27.42;13.43;;;;;;;-1.51;100.00;100580.03;5029126;28;20053;-59
2022/12/14 00:48:20;;;;;;;21.85;12.65;;;;;;;-1.55;100.00;100573.97;5029606;28;20151;-64
2022/12/14 00:50:47;;;;;;;28.20;12.98;;;;;;;-1.62;100.00;100569.59;5029286;28;20043;-64
2022/12/14 00:53:12;;;;;;;21.98;11.88;;;;;;;-1.58;100.00;100568.78;5026802;28;20038;-63
2022/12/14 00:55:38;;;;;;;25.17;12.38;;;;;;;-1.68;100.00;100567.78;5028966;28;20032;-61
2022/12/14 00:58:04;;;;;;;22.58;11.85;;;;;;;-1.59;100.00;100568.75;5028325;28;20025;-64
2022/12/14 01:00:30;;;;;;;22.40;11.38;;;;;;;-1.54;100.00;100567.06;5028537;28;20100;-59
2022/12/14 01:02:55;;;;;;;26.40;12.32;;;;;;;-1.55;100.00;100561.06;5028684;28;20225;-60
2022/12/14 01:05:20;;;;;;;22.63;12.25;;;;;;;-1.60;100.00;100565.28;5029337;28;20028;-63
2022/12/14 01:07:46;;;;;;;24.58;13.07;;;;;;;-1.53;100.00;100545.56;5029130;28;20528;-63
2022/12/14 01:10:11;;;;;;;22.95;11.95;;;;;;;-1.57;100.00;100557.56;5029188;28;20437;-63
2022/12/14 01:12:36;;;;;;;23.83;11.18;;;;;;;-1.55;100.00;100553.31;5029022;28;20463;-64
2022/12/14 01:15:02;;;;;;;25.17;12.05;;;;;;;-1.63;100.00;100549.75;5028117;28;20032;-64
2022/12/14 01:17:27;;;;;;;20.13;11.18;;;;;;;-1.60;100.00;100538.59;5027860;28;20029;-65
2022/12/14 01:19:53;;;;;;;18.40;10.85;;;;;;;-1.56;100.00;100543.78;5029722;28;20030;-63
2022/12/14 01:22:18;;;;;;;22.52;11.13;;;;;;;-1.54;100.00;100549.88;5027753;28;20064;-63
2022/12/14 01:24:44;;;;;;;23.95;11.27;;;;;;;-1.54;100.00;100547.28;5028979;28;20033;-63
2022/12/14 01:27:09;;;;;;;20.83;11.52;;;;;;;-1.50;100.00;100548.19;5028646;28;20029;-60
2022/12/14 01:29:35;;;;;;;22.95;11.90;;;;;;;-1.59;100.00;100541.22;5027884;28;20030;-64
2022/12/14 01:32:01;;;;;;;24.30;12.70;;;;;;;-1.51;100.00;100543.00;5028467;28;20026;-64
2022/12/14 01:34:26;;;;;;;26.90;11.57;;;;;;;-1.57;100.00;100543.78;5028807;28;20380;-63
2022/12/14 01:36:51;;;;;;;27.00;11.25;;;;;;;-1.65;100.00;100535.97;5028918;28;20038;-64
2022/12/14 01:39:17;;;;;;;21.35;11.43;;;;;;;-1.65;100.00;100535.97;5028050;28;20038;-64
2022/12/14 01:41:46;;;;;;;21.98;11.15;;;;;;;-1.67;100.00;100540.22;5028090;28;20034;-64
2022/12/14 01:44:11;;;;;;;24.08;12.02;;;;;;;-1.72;100.00;100545.34;5027727;28;20017;-64
2022/12/14 01:46:49;;;;;;;24.73;11.70;;;;;;;-1.71;100.00;100541.94;5028521;28;20376;-63
2022/12/14 01:49:21;;;;;;;18.13;10.65;;;;;;;-1.69;100.00;100544.50;5026962;28;20527;-58
2022/12/14 01:51:52;;;;;;;20.77;11.23;;;;;;;-1.70;100.00;100542.78;5027374;28;20052;-63
2022/12/14 01:54:18;;;;;;;21.33;11.25;;;;;;;-1.79;100.00;100536.66;5031022;28;20021;-64
2022/12/14 01:56:44;;;;;;;20.25;10.82;;;;;;;-1.76;100.00;100542.69;5031675;28;20562;-65
2022/12/14 01:59:15;;;;;;;24.42;10.40;;;;;;;-1.76;100.00;100542.69;5031505;28;20021;-64
2022/12/14 02:01:40;;;;;;;18.48;10.55;;;;;;;-1.92;100.00;100540.78;5031573;28;20164;-63
2022/12/14 02:04:06;;;;;;;19.63;10.18;;;;;;;-1.88;100.00;100549.44;5032259;28;20112;-65
2022/12/14 02:06:35;;;;;;;23.30;11.07;;;;;;;-1.97;100.00;100546.75;5032021;28;20033;-63
2022/12/14 02:09:02;;;;;;;22.67;11.67;;;;;;;-1.98;100.00;100537.28;5032258;28;20480;-63
2022/12/14 02:11:34;;;;;;;17.60;10.13;;;;;;;-1.96;100.00;100545.91;5030792;28;20025;-64
2022/12/14 02:14:00;;;;;;;19.85;10.55;;;;;;;-1.99;100.00;100536.38;5030637;28;20017;-64
2022/12/14 02:16:25;;;;;;;22.05;11.13;;;;;;;-2.04;100.00;100528.59;5032631;28;20029;-65
2022/12/14 02:18:50;;;;;;;18.85;10.38;;;;;;;-2.06;100.00;100532.88;5032613;28;20057;-66
2022/12/14 02:21:21;;;;;;;22.98;11.52;;;;;;;-2.06;100.00;100530.28;5032142;28;20119;-64
2022/12/14 02:24:19;;;;;;;19.88;10.40;;;;;;;-2.00;100.00;100524.34;5031214;28;20099;-64
2022/12/14 02:27:08;;;;;;;18.60;10.00;;;;;;;-2.08;100.00;100536.28;5029481;28;20033;-65
2022/12/14 02:29:58;;;;;;;17.40;10.05;;;;;;;-2.14;100.00;100542.22;5030056;28;20029;-63
2022/12/14 02:32:38;;;;;;;16.00;8.88;;;;;;;-2.16;100.00;100534.44;5029773;28;20033;-63
2022/12/14 02:35:04;;;;;;;19.55;9.70;;;;;;;-2.24;100.00;100527.44;5030145;28;20025;-66
2022/12/14 02:37:53;;;;;;;18.85;10.07;;;;;;;-2.28;100.00;100534.31;5031252;28;20385;-65
2022/12/14 02:40:26;;;;;;;22.02;9.48;;;;;;;-2.26;100.00;100524.00;5030045;28;20045;-63
2022/12/14 02:43:10;;;;;;;17.52;9.70;;;;;;;-2.28;100.00;100534.31;5031989;28;20116;-65
2022/12/14 02:45:47;;;;;;;19.73;10.50;;;;;;;-2.31;100.00;100537.72;5030845;28;20083;-63
2022/12/14 02:48:25;;;;;;;22.23;10.80;;;;;;;-2.38;100.00;100533.28;5029939;28;20028;-59
2022/12/14 02:50:58;;;;;;;18.80;9.57;;;;;;;-2.52;100.00;100527.06;5030575;28;20029;-63
2022/12/14 02:53:35;;;;;;;18.70;10.80;;;;;;;-2.56;100.00;100529.59;5030237;28;20030;-65
2022/12/14 02:56:05;;;;;;;20.92;9.55;;;;;;;-2.62;100.00;100528.66;5030089;28;20391;-61
2022/12/14 02:58:36;;;;;;;20.25;10.35;;;;;;;-2.64;100.00;100522.59;5031472;28;20388;-65
2022/12/14 03:01:02;;;;;;;21.70;11.38;;;;;;;-2.75;100.00;100528.44;5029598;28;20025;-64
2022/12/14 03:03:27;;;;;;;22.60;11.85;;;;;;;-2.82;100.00;100524.91;5028775;28;20363;-62
2022/12/14 03:05:58;;;;;;;22.33;11.65;;;;;;;-2.82;100.00;100518.88;5031411;28;20110;-65
2022/12/14 03:08:25;;;;;;;23.15;11.38;;;;;;;-2.83;100.00;100512.00;5031699;28;20021;-64
2022/12/14 03:10:56;;;;;;;21.63;11.88;;;;;;;-2.89;100.00;100510.16;5030166;28;20079;-61
2022/12/14 03:13:27;;;;;;;24.67;12.23;;;;;;;-2.87;100.00;100507.59;5030558;28;20440;-64
2022/12/14 03:15:59;;;;;;;26.58;12.75;;;;;;;-2.86;100.00;100499.88;5030883;28;20033;-65
2022/12/14 03:18:27;;;;;;;23.02;11.82;;;;;;;-2.86;100.00;100499.88;5029307;28;20017;-64
2022/12/14 03:20:54;;;;;;;25.20;11.60;;;;;;;-2.90;100.00;100498.13;5030164;28;20112;-64
2022/12/14 03:23:31;;;;;;;24.90;13.27;;;;;;;-2.93;100.00;100488.63;5029285;28;20026;-65
2022/12/14 03:26:05;;;;;;;25.23;11.95;;;;;;;-2.88;100.00;100483.53;5029606;28;20076;-63
2022/12/14 03:28:44;;;;;;;25.52;13.30;;;;;;;-2.91;100.00;100480.91;5029787;28;20022;-65
2022/12/14 03:31:33;;;;;;;29.35;13.30;;;;;;;-3.03;100.00;100480.72;5029319;28;20104;-64
2022/12/14 03:34:00;;;;;;;31.92;12.88;;;;;;;-3.05;100.00;100478.97;5030836;28;20065;-62
2022/12/14 03:36:47;;;;;;;33.60;13.38;;;;;;;-3.09;100.00;100474.63;5029490;28;20029;-63
2022/12/14 03:39:18;;;;;;;27.05;12.38;;;;;;;-3.12;100.00;100471.13;5028903;28;20385;-65
2022/12/14 03:41:54;;;;;;;27.98;13.77;;;;;;;-3.12;100.00;100466.84;5101399;22;20057;-64
2022/12/14 03:44:54;;;;;;;25.42;13.88;;;;;;;-3.19;100.00;100467.59;5009977;28;20286;-64
2022/12/14 03:47:32;;;;;;;26.30;12.93;;;;;;;-3.24;100.00;100470.06;5011187;28;20052;-65
2022/12/14 03:50:42;;;;;;;25.88;14.20;;;;;;;-3.27;100.00;100476.88;5009956;28;20030;-63
2022/12/14 03:53:26;;;;;;;21.92;12.18;;;;;;;-3.32;100.00;100476.78;4988467;28;20575;-64
2022/12/14 03:56:04;;;;;;;27.88;13.88;;;;;;;-3.32;100.00;100469.06;4988988;28;20030;-64
2022/12/14 03:58:56;;;;;;;25.33;12.88;;;;;;;-3.39;100.00;100473.25;5003631;28;20049;-64
2022/12/14 04:01:53;;;;;;;24.77;14.52;;;;;;;-3.37;100.00;100463.81;5009589;28;20025;-65
2022/12/14 04:04:33;;;;;;;27.40;12.02;;;;;;;-3.35;100.00;100459.56;5008522;28;20116;-64
2022/12/14 04:07:16;;;;;;;27.42;14.30;;;;;;;-3.41;100.00;100462.03;5009614;28;20022;-64
2022/12/14 04:09:55;;;;;;;27.40;13.60;;;;;;;-3.41;100.00;100453.47;5010546;28;20030;-65
2022/12/14 04:21:01;;;;;;;30.03;14.10;;;;;;;-3.52;100.00;100445.53;5010049;28;20092;-65
2022/12/14 04:26:37;;;;;;;29.67;13.88;;;;;;;-3.55;100.00;100436.91;5009903;28;20095;-63
2022/12/14 04:32:08;;;;;;;30.80;13.77;;;;;;;-3.59;100.00;100434.25;4990468;28;20462;-65
2022/12/14 04:34:36;;;;;;;25.38;13.23;;;;;;;-3.61;100.00;100430.78;5007614;28;20104;-65
2022/12/14 04:37:05;;;;;;;31.05;14.65;;;;;;;-3.63;100.00;100432.47;5009871;28;20026;-64
2022/12/14 04:39:39;;;;;;;25.73;13.00;;;;;;;-3.59;100.00;100427.41;5008165;28;20502;-63
2022/12/14 04:42:06;;;;;;;25.02;12.70;;;;;;;-3.58;100.00;100425.69;5008434;28;20045;-64
2022/12/14 04:44:35;;;;;;;25.58;14.73;;;;;;;-3.61;100.00;100434.22;5009586;28;20057;-59
2022/12/14 04:47:01;;;;;;;27.08;13.65;;;;;;;-3.68;100.00;100430.69;5008703;28;20026;-64
2022/12/14 04:49:52;;;;;;;26.17;13.10;;;;;;;-3.66;100.00;100427.25;5009992;28;20026;-63
2022/12/14 04:52:28;;;;;;;27.63;13.82;;;;;;;-3.66;100.00;100416.94;5008993;28;20029;-59
2022/12/14 04:55:01;;;;;;;25.63;13.65;;;;;;;-3.74;100.00;100420.25;5010215;28;20026;-62
2022/12/14 04:57:45;;;;;;;27.20;15.10;;;;;;;-3.83;100.00;100420.97;5008880;28;20548;-63
2022/12/14 05:00:11;;;;;;;30.73;15.05;;;;;;;-3.83;100.00;100423.53;5007930;28;20025;-64
2022/12/14 05:02:48;;;;;;;27.02;14.55;;;;;;;-3.82;100.00;100422.69;5007385;28;20040;-66
2022/12/14 05:05:17;;;;;;;30.13;13.88;;;;;;;-3.87;100.00;100421.75;5009834;28;20037;-61
2022/12/14 05:07:51;;;;;;;28.55;13.48;;;;;;;-3.88;100.00;100419.16;5007916;28;20108;-64
2022/12/14 05:10:45;;;;;;;24.92;13.07;;;;;;;-3.99;100.00;100413.78;5008312;28;20436;-65
2022/12/14 05:13:23;;;;;;;27.08;13.80;;;;;;;-4.00;100.00;100412.94;5008765;28;20025;-65
2022/12/14 05:15:51;;;;;;;26.27;12.40;;;;;;;-4.02;100.00;100412.03;5008845;28;20540;-63
2022/12/14 05:18:16;;;;;;;28.63;14.02;;;;;;;-4.01;100.00;100410.34;5009273;28;20109;-64
2022/12/14 05:20:42;;;;;;;27.67;13.10;;;;;;;-4.03;100.00;100412.00;5009501;28;20097;-64
2022/12/14 05:23:08;;;;;;;26.83;14.00;;;;;;;-4.04;100.00;100411.13;5008446;28;20033;-65
2022/12/14 05:25:33;;;;;;;27.90;13.05;;;;;;;-4.10;100.00;100404.16;5009278;28;20022;-64
2022/12/14 05:27:59;;;;;;;22.75;12.70;;;;;;;-4.11;100.00;100407.56;5006446;28;20030;-64
2022/12/14 05:30:24;;;;;;;23.48;13.05;;;;;;;-4.13;100.00;100406.66;5008715;28;20097;-55
2022/12/14 05:32:50;;;;;;;25.10;13.18;;;;;;;-4.27;100.00;100405.53;5008679;28;20057;-62
2022/12/14 05:35:15;;;;;;;23.77;13.52;;;;;;;-4.24;100.00;100413.31;5008527;28;20399;-57
2022/12/14 05:37:41;;;;;;;27.58;14.25;;;;;;;-4.15;100.00;100413.50;5008764;28;20414;-64
2022/12/14 05:40:07;;;;;;;29.35;14.20;;;;;;;-4.20;100.00;100415.97;5008853;28;20431;-64
2022/12/14 05:42:32;;;;;;;24.23;13.25;;;;;;;-4.13;100.00;100416.97;5008201;28;20042;-63
2022/12/14 05:44:58;;;;;;;27.25;12.73;;;;;;;-4.17;100.00;100410.03;5008731;28;20030;-65
2022/12/14 05:47:23;;;;;;;23.33;12.82;;;;;;;-4.22;100.00;100402.22;5005922;28;20018;-65
2022/12/14 05:49:49;;;;;;;23.90;14.07;;;;;;;-4.34;100.00;100402.84;5009266;28;20447;-61
2022/12/14 05:52:14;;;;;;;27.08;13.70;;;;;;;-4.32;100.00;100401.16;5008065;28;20423;-63
2022/12/14 05:54:39;;;;;;;25.45;13.95;;;;;;;-4.34;100.00;100397.69;5008839;28;20038;-64
2022/12/14 05:57:05;;;;;;;27.88;11.95;;;;;;;-4.25;100.00;100396.16;5008787;28;20022;-65
2022/12/14 05:59:31;;;;;;;25.30;12.52;;;;;;;-4.13;100.00;100400.66;5008375;28;20080;-64
2022/12/14 06:01:57;;;;;;;24.27;11.93;;;;;;;-4.11;100.00;100394.72;5008711;28;20026;-64
2022/12/14 06:04:22;;;;;;;24.27;12.63;;;;;;;-4.09;100.00;100398.16;5000107;28;20354;-61
2022/12/14 06:06:49;;;;;;;25.23;12.75;;;;;;;-4.16;100.00;100405.75;4992285;28;20472;-65
2022/12/14 06:09:15;;;;;;;23.05;11.85;;;;;;;-4.14;100.00;100402.38;4999541;28;20999;-66
2022/12/14 06:11:40;;;;;;;22.55;11.75;;;;;;;-4.25;100.00;100401.28;5009323;28;20026;-65
2022/12/14 06:14:07;;;;;;;20.83;11.95;;;;;;;-4.25;100.00;100403.88;5006878;28;20399;-66
2022/12/14 06:16:33;;;;;;;23.58;12.80;;;;;;;-4.24;100.00;100397.88;5008205;28;20033;-63
2022/12/14 06:18:59;;;;;;;25.80;13.40;;;;;;;-4.23;100.00;100392.75;5008559;28;20101;-64
2022/12/14 06:21:27;;;;;;;24.20;12.32;;;;;;;-4.26;100.00;100395.28;4999533;28;20041;-64
2022/12/14 06:23:53;;;;;;;23.35;12.52;;;;;;;-4.21;100.00;100392.78;5004937;28;20026;-66
2022/12/14 06:26:19;;;;;;;23.55;12.02;;;;;;;-4.22;100.00;100393.59;5008594;28;20025;-64
2022/12/14 06:28:44;;;;;;;24.52;12.38;;;;;;;-4.29;100.00;100391.75;5005057;28;20105;-65
2022/12/14 06:31:18;;;;;;;25.30;13.02;;;;;;;-4.28;100.00;100390.94;4998752;28;20065;-59
2022/12/14 06:33:43;;;;;;;24.50;13.00;;;;;;;-4.32;100.00;100388.31;5008846;28;20041;-62
2022/12/14 06:36:18;;;;;;;28.40;13.00;;;;;;;-4.39;100.00;100383.88;5008265;28;20029;-65
2022/12/14 06:38:44;;;;;;;29.27;15.15;;;;;;;-4.39;100.00;100389.03;5010366;28;20029;-64
2022/12/14 06:41:10;;;;;;;29.42;14.25;;;;;;;-4.35;100.00;100395.06;5012069;28;20045;-59
2022/12/14 06:43:35;;;;;;;22.83;12.70;;;;;;;-4.38;100.00;100395.00;5005454;28;20042;-58
2022/12/14 06:46:05;;;;;;;24.60;13.07;;;;;;;-4.41;100.00;100390.69;5003004;28;20034;-64
2022/12/14 06:48:31;;;;;;;26.90;12.75;;;;;;;-4.35;100.00;100392.50;5004205;28;20097;-60
2022/12/14 06:51:01;;;;;;;30.83;12.73;;;;;;;-4.40;100.00;100391.56;5002071;28;20426;-66
2022/12/14 06:53:26;;;;;;;23.33;11.45;;;;;;;-4.38;100.00;100389.88;5009890;28;20030;-52
2022/12/14 06:55:52;;;;;;;25.40;12.90;;;;;;;-4.40;100.00;100387.25;5009316;28;20088;-65
2022/12/14 06:58:17;;;;;;;29.90;13.85;;;;;;;-4.38;100.00;100385.59;5010926;28;20050;-66
2022/12/14 07:00:43;;;;;;;27.52;13.55;;;;;;;-4.43;100.00;100387.19;5011995;28;20049;-66
2022/12/14 07:03:09;;;;;;;32.97;14.75;;;;;;;-4.48;100.00;100384.53;5010984;28;20065;-61
2022/12/14 07:05:34;;;;;;;30.20;14.43;;;;;;;-4.46;100.00;100389.72;5011389;28;20068;-66
2022/12/14 07:08:00;;;;;;;30.52;14.73;;;;;;;-4.48;100.00;100401.69;5010563;28;20092;-61
2022/12/14 07:10:25;;;;;;;29.13;13.63;;;;;;;-4.57;100.00;100400.63;4999933;28;20026;-56
2022/12/14 07:12:51;;;;;;;24.73;12.88;;;;;;;-4.58;100.00;100398.91;5005366;28;20088;-65
2022/12/14 07:15:16;;;;;;;25.58;13.27;;;;;;;-4.61;100.00;100403.13;5009895;28;20030;-66
2022/12/14 07:17:41;;;;;;;23.73;11.70;;;;;;;-4.50;100.00;100395.63;5009678;28;20033;-59
2022/12/14 07:20:07;;;;;;;24.67;11.98;;;;;;;-4.53;100.00;100405.84;5010977;28;20060;-63
2022/12/14 07:22:34;;;;;;;22.48;12.80;;;;;;;-4.51;100.00;100402.50;5010515;28;20034;-64
2022/12/14 07:24:59;;;;;;;23.92;11.50;;;;;;;-4.50;100.00;100403.34;5009200;28;20376;-66
2022/12/14 07:27:25;;;;;;;25.55;12.18;;;;;;;-4.55;100.00;100402.41;5010355;28;20105;-64
2022/12/14 07:29:51;;;;;;;21.80;12.20;;;;;;;-4.62;100.00;100406.53;5001733;28;20495;-66
2022/12/14 07:32:16;;;;;;;19.88;11.40;;;;;;;-4.60;100.00;100408.28;5001060;28;20026;-67
2022/12/14 07:34:41;;;;;;;20.65;11.48;;;;;;;-4.69;100.00;100406.38;4998063;28;20456;-65
2022/12/14 07:37:07;;;;;;;22.83;12.25;;;;;;;-4.74;100.00;100412.28;5001964;28;20026;-64
2022/12/14 07:39:32;;;;;;;25.08;11.13;;;;;;;-4.78;100.00;100416.50;4999384;28;20037;-60
2022/12/14 07:41:57;;;;;;;25.08;12.23;;;;;;;-4.82;100.00;100418.13;4989418;28;20085;-66
2022/12/14 07:44:23;;;;;;;23.70;11.73;;;;;;;-4.91;100.00;100420.47;4994107;28;20105;-65
2022/12/14 07:46:48;;;;;;;21.70;11.52;;;;;;;-4.87;100.00;100419.72;5010128;28;20045;-64
2022/12/14 07:49:13;;;;;;;25.90;11.38;;;;;;;-4.91;100.00;100430.75;5009549;28;20136;-64
2022/12/14 07:51:40;;;;;;;22.48;11.68;;;;;;;-4.87;100.00;100429.13;5010370;28;20065;-64
2022/12/14 07:54:06;;;;;;;21.65;11.05;;;;;;;-4.95;100.00;100432.41;5009651;28;20026;-64
2022/12/14 07:56:34;;;;;;;19.42;11.05;;;;;;;-4.91;100.00;100435.03;5009370;28;20034;-65
2022/12/14 07:59:02;;;;;;;19.27;11.43;;;;;;;-4.83;100.00;100423.22;5007734;28;20494;-63
2022/12/14 08:01:32;;;;;;;26.83;12.63;;;;;;;-4.85;100.00;100420.59;5010127;28;20025;-64
2022/12/14 08:03:59;;;;;;;23.42;12.68;;;;;;;-4.79;100.00;100431.88;5010067;28;20025;-62
2022/12/14 08:06:27;;;;;;;25.33;11.75;;;;;;;-4.82;100.00;100424.94;5010414;28;20010;-62
2022/12/14 08:08:54;;;;;;;23.92;11.00;;;;;;;-4.79;100.00;100429.31;5010669;28;20042;-64
2022/12/14 08:11:23;;;;;;;23.63;12.13;;;;;;;-4.78;100.00;100431.03;5010829;28;20092;-66
2022/12/14 08:13:58;;;;;;;22.05;12.07;;;;;;;-4.84;100.00;100432.63;5009815;28;20539;-65
2022/12/14 08:16:24;;;;;;;29.70;13.77;;;;;;;-4.86;100.00;100436.00;5009551;28;20030;-64
2022/12/14 08:18:52;;;;;;;25.00;12.27;;;;;;;-4.79;100.00;100431.88;5009983;28;20500;-63
2022/12/14 08:21:20;;;;;;;23.85;12.52;;;;;;;-4.73;100.00;100434.59;5008723;28;20029;-65
2022/12/14 08:23:45;;;;;;;27.50;12.73;;;;;;;-4.68;100.00;100438.13;5001395;28;20105;-65
2022/12/14 08:26:11;;;;;;;23.58;12.82;;;;;;;-4.67;100.00;100439.00;5000722;28;20484;-64
2022/12/14 08:28:36;;;;;;;26.92;13.38;;;;;;;-4.66;100.00;100444.19;5000447;28;20658;-66
2022/12/14 08:31:03;;;;;;;22.25;11.95;;;;;;;-4.62;100.00;100442.53;5005217;28;20076;-64
2022/12/14 08:33:29;;;;;;;21.10;11.30;;;;;;;-4.61;100.00;100445.13;5010328;28;20380;-65
2022/12/14 08:35:54;;;;;;;21.10;12.95;;;;;;;-4.66;100.00;100441.59;5010915;28;20037;-60
2022/12/14 08:38:19;;;;;;;26.30;12.60;;;;;;;-4.57;100.00;100440.94;5010628;28;20030;-66
2022/12/14 08:40:45;;;;;;;27.90;13.52;;;;;;;-4.60;100.00;100436.56;5010634;28;20354;-62
2022/12/14 08:43:10;;;;;;;24.45;12.77;;;;;;;-4.54;100.00;100438.44;5008963;28;20054;-64
2022/12/14 08:45:35;;;;;;;25.60;12.75;;;;;;;-4.38;100.00;100439.63;5009539;28;20030;-64
2022/12/14 08:48:02;;;;;;;21.80;12.30;;;;;;;-4.31;100.00;100436.34;5009333;28;20461;-65
2022/12/14 08:50:30;;;;;;;24.65;11.65;;;;;;;-4.24;100.00;100439.91;5009412;28;20049;-67
2022/12/14 08:52:55;;;;;;;23.00;11.38;;;;;;;-4.13;100.00;100440.13;5008496;28;20049;-62
2022/12/14 08:55:22;;;;;;;22.00;10.98;;;;;;;-4.06;100.00;100443.69;5009985;28;20054;-63
2022/12/14 08:57:48;;;;;;;26.75;11.27;;;;;;;-3.99;100.00;100442.09;5009800;28;20026;-65
2022/12/14 09:00:14;;;;;;;25.73;12.23;;;;;;;-3.92;100.00;100451.66;5008641;28;20040;-65
2022/12/14 09:02:39;;;;;;;20.05;11.02;;;;;;;-3.93;100.00;100444.81;5008538;28;20389;-64
2022/12/14 09:05:05;;;;;;;21.35;10.52;;;;;;;-3.82;100.00;100443.28;5008488;28;20469;-64
2022/12/14 09:07:30;;;;;;;18.67;10.73;;;;;;;-3.76;100.00;100439.09;5009022;28;20495;-56
2022/12/14 09:09:56;;;;;;;22.92;11.75;;;;;;;-3.75;100.00;100448.56;5008188;28;20535;-64
2022/12/14 09:12:22;;;;;;;25.30;11.32;;;;;;;-3.65;100.00;100437.59;5009674;28;20491;-56
2022/12/14 09:14:48;;;;;;;20.42;11.40;;;;;;;-3.67;100.00;100447.00;5008450;28;20022;-64
2022/12/14 09:17:14;;;;;;;22.55;12.20;;;;;;;-3.53;100.00;100444.66;5007647;28;20447;-64
2022/12/14 09:19:39;;;;;;;24.90;12.75;;;;;;;-3.47;100.00;100433.59;5009379;28;20079;-63
2022/12/14 09:22:05;;;;;;;23.05;11.95;;;;;;;-3.40;100.00;100439.72;5000819;28;20457;-65
2022/12/14 09:24:30;;;;;;;23.92;11.55;;;;;;;-3.39;100.00;100447.50;5006417;28;20350;-63
2022/12/14 09:26:58;;;;;;;21.05;11.98;;;;;;;-3.38;100.00;100444.06;5009206;28;20025;-62
2022/12/14 09:29:24;;;;;;;21.52;12.15;;;;;;;-3.37;100.00;100448.38;5004875;28;20018;-62
2022/12/14 09:31:49;;;;;;;21.50;11.23;;;;;;;-3.22;100.00;100452.06;4994967;28;20048;-64
2022/12/14 09:34:15;;;;;;;22.08;11.18;;;;;;;-3.23;100.00;100456.34;5005125;28;20501;-64
2022/12/14 09:36:41;;;;;;;18.83;10.82;;;;;;;-3.12;100.00;100460.81;4998462;28;20030;-68
2022/12/14 09:39:06;;;;;;;22.48;11.13;;;;;;;-3.01;100.00;100458.41;4996420;28;20042;-65
2022/12/14 09:41:35;;;;;;;19.70;10.93;;;;;;;-2.93;100.00;100455.09;4999290;28;20469;-64
2022/12/14 09:44:18;;;;;;;16.20;9.95;;;;;;;-2.81;100.00;100451.84;5003046;28;20061;-65
2022/12/14 09:46:53;;;;;;;18.67;10.20;;;;;;;-2.74;100.00;100452.78;5004317;28;20064;-61
2022/12/14 09:49:30;;;;;;;17.90;9.73;;;;;;;-2.80;100.00;100458.72;5008838;28;20512;-64
2022/12/14 09:51:58;;;;;;;21.30;10.52;;;;;;;-2.81;100.00;100459.59;5006821;28;20030;-59
2022/12/14 09:54:43;;;;;;;17.25;10.45;;;;;;;-2.82;100.00;100464.72;5003747;28;20026;-66
2022/12/14 09:57:20;;;;;;;18.17;10.10;;;;;;;-2.64;100.00;100455.50;5006902;28;20480;-64
2022/12/14 09:59:46;;;;;;;23.65;11.48;;;;;;;-2.50;100.00;100458.28;4993573;28;20026;-64
2022/12/14 10:02:26;;;;;;;29.02;11.75;;;;;;;-2.51;100.00;100460.00;5001480;28;20040;-64
2022/12/14 10:05:01;;;;;;;16.92;9.60;;;;;;;-2.66;100.00;100465.81;5005885;28;20496;-66
2022/12/14 10:07:33;;;;;;;15.88;9.57;;;;;;;-2.62;100.00;100465.00;5008845;28;20376;-64
2022/12/14 10:10:12;;;;;;;21.05;9.82;;;;;;;-2.47;100.00;100458.34;5006026;28;20042;-65
2022/12/14 10:13:09;;;;;;;19.80;10.25;;;;;;;-2.38;100.00;100455.84;5004362;28;20100;-61
2022/12/14 10:16:07;;;;;;;18.42;9.57;;;;;;;-2.28;100.00;100462.03;5007982;28;20049;-65
2022/12/14 10:18:35;;;;;;;15.50;9.27;;;;;;;-2.14;100.00;100461.34;5010635;28;20060;-64
2022/12/14 10:21:04;;;;;;;19.52;10.75;;;;;;;-2.18;100.00;100460.41;5011259;28;20026;-65
2022/12/14 10:23:30;;;;;;;18.13;9.65;;;;;;;-2.20;100.00;100459.56;5009796;28;20037;-56
2022/12/14 10:26:07;;;;;;;20.20;9.80;;;;;;;-2.17;100.00;100449.22;5010736;28;20033;-59
2022/12/14 10:28:35;;;;;;;16.85;9.70;;;;;;;-1.98;99.88;100455.50;5011085;28;20041;-64
2022/12/14 10:31:01;;;;;;;16.43;10.20;;;;;;;-1.93;99.59;100440.03;5012248;28;20029;-65
2022/12/14 10:33:28;;;;;;;17.55;9.20;;;;;;;-1.95;99.54;100445.22;5012090;28;20034;-61
2022/12/14 10:36:03;;;;;;;17.30;10.38;;;;;;;-1.86;99.51;100439.28;5012127;28;20029;-57
2022/12/14 10:38:49;;;;;;;16.75;9.45;;;;;;;-1.82;99.22;100446.22;5010989;28;20022;-65
2022/12/14 10:41:23;;;;;;;20.27;9.73;;;;;;;-1.81;99.13;100442.78;5004273;28;20038;-63
2022/12/14 10:44:04;;;;;;;19.95;9.70;;;;;;;-1.63;99.05;100448.13;5011008;28;20041;-65
2022/12/14 10:46:53;;;;;;;20.33;10.85;;;;;;;-1.56;98.61;100440.44;5011927;28;20038;-65
2022/12/14 10:49:27;;;;;;;15.10;8.95;;;;;;;-1.51;98.21;100434.47;4993518;28;20072;-63
2022/12/14 10:51:59;;;;;;;15.05;8.48;;;;;;;-1.48;98.61;100437.91;5010767;28;20106;-65
2022/12/14 10:54:29;;;;;;;16.77;9.45;;;;;;;-1.45;98.36;100430.19;5011096;28;20061;-53
2022/12/14 10:56:54;;;;;;;23.83;9.10;;;;;;;-1.45;98.04;100431.91;5010606;28;20029;-61
2022/12/14 10:59:20;;;;;;;15.35;9.00;;;;;;;-1.43;97.61;100433.69;5011122;28;20026;-65
2022/12/14 11:01:47;;;;;;;16.95;9.82;;;;;;;-1.44;97.15;100420.75;5011660;28;20034;-64
2022/12/14 11:04:32;;;;;;;16.17;9.38;;;;;;;-1.40;97.55;100422.50;5010151;28;20022;-64
2022/12/14 11:06:59;;;;;;;15.00;9.55;;;;;;;-1.29;97.37;100425.19;5011866;28;20030;-63
2022/12/14 11:09:25;;;;;;;18.55;9.80;;;;;;;-1.31;97.26;100420.00;5011873;28;20033;-58
2022/12/14 11:11:58;;;;;;;17.95;9.05;;;;;;;-1.23;97.57;100421.78;5011942;28;20113;-65
2022/12/14 11:14:25;;;;;;;16.33;9.48;;;;;;;-1.28;97.17;100424.31;5010252;28;20033;-64
2022/12/14 11:16:50;;;;;;;15.77;8.70;;;;;;;-1.32;96.78;100426.00;5010241;28;20581;-64
2022/12/14 11:19:18;;;;;;;20.08;9.70;;;;;;;-1.25;96.60;100421.75;5009575;28;20033;-64
2022/12/14 11:21:44;;;;;;;16.33;9.77;;;;;;;-1.05;96.03;100431.41;5011052;28;20026;-63
2022/12/14 11:24:24;;;;;;;19.02;9.60;;;;;;;-1.03;95.83;100433.13;5010439;28;20380;-59
2022/12/14 11:26:51;;;;;;;19.25;9.98;;;;;;;-0.91;95.69;100431.47;5011528;28;20026;-60
2022/12/14 11:29:31;;;;;;;19.95;9.38;;;;;;;-0.94;96.08;100434.03;5010320;28;20018;-64
2022/12/14 11:31:56;;;;;;;15.98;9.05;;;;;;;-0.82;95.45;100431.53;5010461;28;20022;-64